Milaca, Minnesota
Current Conditions -  °F | °C
As of 10:14 AM on Thursday 30 Oct 2014 (Local Time) from KPNM Reporting Station
Overcast Overcast  
Wind Chill: 41°   Ceiling: 5000
Heat Index: 41°   Visibility: 10mi
Dew Point: 36°   Wind: 0mph
Humidity: 81%   Direction: NA
Pressure: 30.09"   Gusts: NA
Location:  45.76°N, 93.65°W
Report Text: KPNM 301514Z AUTO 00000KT 10SM OVC050 05/02 A3009 RMK AO2
Loading
Personal Weather Stations






























Interactive Weather Map
Tropical Storm Tracking
New forecast layout! Learn more

10-Day Weather Forecast

Advertisements
Track Severe Weather on mobile